sensor_id;sensor_type;location;lat;lon;timestamp;temperature;humidity
38866;DHT22;24612;48.984;8.394;2022-07-25T00:00:37;22.20;99.90
38866;DHT22;24612;48.984;8.394;2022-07-25T00:03:05;22.30;99.90
38866;DHT22;24612;48.984;8.394;2022-07-25T00:05:33;22.40;99.90
38866;DHT22;24612;48.984;8.394;2022-07-25T00:08:04;22.50;99.90
38866;DHT22;24612;48.984;8.394;2022-07-25T00:10:32;22.60;99.90
38866;DHT22;24612;48.984;8.394;2022-07-25T00:13:01;22.60;99.90
38866;DHT22;24612;48.984;8.394;2022-07-25T00:15:29;22.50;99.90
38866;DHT22;24612;48.984;8.394;2022-07-25T00:17:57;22.60;99.90
38866;DHT22;24612;48.984;8.394;2022-07-25T00:20:26;22.40;99.90
38866;DHT22;24612;48.984;8.394;2022-07-25T00:22:54;22.30;99.90
38866;DHT22;24612;48.984;8.394;2022-07-25T00:25:22;22.30;99.90
38866;DHT22;24612;48.984;8.394;2022-07-25T00:27:50;22.20;99.90
38866;DHT22;24612;48.984;8.394;2022-07-25T00:30:19;22.10;99.90
38866;DHT22;24612;48.984;8.394;2022-07-25T00:32:47;22.10;99.90
38866;DHT22;24612;48.984;8.394;2022-07-25T00:35:15;22.00;99.90
38866;DHT22;24612;48.984;8.394;2022-07-25T00:37:43;22.10;99.90
38866;DHT22;24612;48.984;8.394;2022-07-25T00:40:12;22.10;99.90
38866;DHT22;24612;48.984;8.394;2022-07-25T00:42:40;22.20;99.90
38866;DHT22;24612;48.984;8.394;2022-07-25T00:45:08;22.20;99.90
38866;DHT22;24612;48.984;8.394;2022-07-25T00:47:38;22.10;99.90
38866;DHT22;24612;48.984;8.394;2022-07-25T00:50:07;22.10;99.90
38866;DHT22;24612;48.984;8.394;2022-07-25T00:52:35;22.10;99.90
38866;DHT22;24612;48.984;8.394;2022-07-25T00:55:04;22.00;99.90
38866;DHT22;24612;48.984;8.394;2022-07-25T00:57:33;21.90;99.90
38866;DHT22;24612;48.984;8.394;2022-07-25T01:00:02;21.90;99.90
38866;DHT22;24612;48.984;8.394;2022-07-25T01:02:30;21.80;99.90
38866;DHT22;24612;48.984;8.394;2022-07-25T01:05:00;21.70;99.90
38866;DHT22;24612;48.984;8.394;2022-07-25T01:07:28;21.60;99.90
38866;DHT22;24612;48.984;8.394;2022-07-25T01:09:57;21.60;99.90
38866;DHT22;24612;48.984;8.394;2022-07-25T01:12:25;21.60;99.90
38866;DHT22;24612;48.984;8.394;2022-07-25T01:14:53;21.60;99.90
38866;DHT22;24612;48.984;8.394;2022-07-25T01:17:21;21.60;99.90
38866;DHT22;24612;48.984;8.394;2022-07-25T01:19:49;21.60;99.90
38866;DHT22;24612;48.984;8.394;2022-07-25T01:22:20;21.50;99.90
38866;DHT22;24612;48.984;8.394;2022-07-25T01:24:48;21.40;99.90
38866;DHT22;24612;48.984;8.394;2022-07-25T01:27:16;21.30;99.90
38866;DHT22;24612;48.984;8.394;2022-07-25T01:29:44;21.30;99.90
38866;DHT22;24612;48.984;8.394;2022-07-25T01:32:12;21.30;99.90
38866;DHT22;24612;48.984;8.394;2022-07-25T01:34:40;21.20;99.90
38866;DHT22;24612;48.984;8.394;2022-07-25T01:37:08;21.10;99.90
38866;DHT22;24612;48.984;8.394;2022-07-25T01:39:38;21.10;99.90
38866;DHT22;24612;48.984;8.394;2022-07-25T01:42:06;21.10;99.90
38866;DHT22;24612;48.984;8.394;2022-07-25T01:44:34;21.00;99.90
38866;DHT22;24612;48.984;8.394;2022-07-25T01:47:02;21.00;99.90
38866;DHT22;24612;48.984;8.394;2022-07-25T01:49:30;20.90;99.90
38866;DHT22;24612;48.984;8.394;2022-07-25T01:51:59;20.80;99.90
38866;DHT22;24612;48.984;8.394;2022-07-25T01:54:27;20.80;99.90
38866;DHT22;24612;48.984;8.394;2022-07-25T01:56:56;20.80;99.90
38866;DHT22;24612;48.984;8.394;2022-07-25T01:59:24;20.90;99.90
38866;DHT22;24612;48.984;8.394;2022-07-25T02:01:53;20.90;99.90
38866;DHT22;24612;48.984;8.394;2022-07-25T02:04:21;20.80;99.90
38866;DHT22;24612;48.984;8.394;2022-07-25T02:06:49;20.80;99.90
38866;DHT22;24612;48.984;8.394;2022-07-25T02:09:17;20.80;99.90
38866;DHT22;24612;48.984;8.394;2022-07-25T02:11:46;20.80;99.90
38866;DHT22;24612;48.984;8.394;2022-07-25T02:14:15;20.80;99.90
38866;DHT22;24612;48.984;8.394;2022-07-25T02:16:43;20.70;99.90
38866;DHT22;24612;48.984;8.394;2022-07-25T02:19:11;20.60;99.90
38866;DHT22;24612;48.984;8.394;2022-07-25T02:21:39;20.50;99.90
38866;DHT22;24612;48.984;8.394;2022-07-25T02:24:07;20.50;99.90
38866;DHT22;24612;48.984;8.394;2022-07-25T02:26:35;20.50;99.90
38866;DHT22;24612;48.984;8.394;2022-07-25T02:29:04;20.50;99.90
38866;DHT22;24612;48.984;8.394;2022-07-25T02:31:33;20.40;99.90
38866;DHT22;24612;48.984;8.394;2022-07-25T02:34:01;20.40;99.90
38866;DHT22;24612;48.984;8.394;2022-07-25T02:36:30;20.40;99.90
38866;DHT22;24612;48.984;8.394;2022-07-25T02:38:58;20.40;99.90
38866;DHT22;24612;48.984;8.394;2022-07-25T02:41:26;20.40;99.90
38866;DHT22;24612;48.984;8.394;2022-07-25T02:43:54;20.50;99.90
38866;DHT22;24612;48.984;8.394;2022-07-25T02:46:22;20.50;99.90
38866;DHT22;24612;48.984;8.394;2022-07-25T02:48:51;20.60;99.90
38866;DHT22;24612;48.984;8.394;2022-07-25T02:51:19;20.60;99.90
38866;DHT22;24612;48.984;8.394;2022-07-25T02:53:47;20.70;99.90
38866;DHT22;24612;48.984;8.394;2022-07-25T02:56:24;20.70;99.90
38866;DHT22;24612;48.984;8.394;2022-07-25T02:58:52;20.70;99.90
38866;DHT22;24612;48.984;8.394;2022-07-25T03:01:20;20.70;99.90
38866;DHT22;24612;48.984;8.394;2022-07-25T03:03:48;20.70;99.90
38866;DHT22;24612;48.984;8.394;2022-07-25T03:06:18;20.70;99.90
38866;DHT22;24612;48.984;8.394;2022-07-25T03:08:46;20.60;99.90
38866;DHT22;24612;48.984;8.394;2022-07-25T03:11:14;20.60;99.90
38866;DHT22;24612;48.984;8.394;2022-07-25T03:13:42;20.50;99.90
38866;DHT22;24612;48.984;8.394;2022-07-25T03:16:10;20.50;99.90
38866;DHT22;24612;48.984;8.394;2022-07-25T03:18:38;20.40;99.90
38866;DHT22;24612;48.984;8.394;2022-07-25T03:21:06;20.30;99.90
38866;DHT22;24612;48.984;8.394;2022-07-25T03:23:36;20.30;99.90
38866;DHT22;24612;48.984;8.394;2022-07-25T03:26:04;20.20;99.90
38866;DHT22;24612;48.984;8.394;2022-07-25T03:28:32;20.20;99.90
38866;DHT22;24612;48.984;8.394;2022-07-25T03:31:00;20.20;99.90
38866;DHT22;24612;48.984;8.394;2022-07-25T03:33:29;20.20;99.90
38866;DHT22;24612;48.984;8.394;2022-07-25T03:35:57;20.10;99.90
38866;DHT22;24612;48.984;8.394;2022-07-25T03:38:25;20.00;99.90
38866;DHT22;24612;48.984;8.394;2022-07-25T03:40:54;20.10;99.90
38866;DHT22;24612;48.984;8.394;2022-07-25T03:43:22;20.10;99.90
38866;DHT22;24612;48.984;8.394;2022-07-25T03:45:51;20.10;99.90
38866;DHT22;24612;48.984;8.394;2022-07-25T03:48:19;20.00;99.90
38866;DHT22;24612;48.984;8.394;2022-07-25T03:50:47;19.90;99.90
38866;DHT22;24612;48.984;8.394;2022-07-25T03:53:15;19.90;99.90
38866;DHT22;24612;48.984;8.394;2022-07-25T03:55:43;19.80;99.90
38866;DHT22;24612;48.984;8.394;2022-07-25T03:58:12;19.80;99.90
38866;DHT22;24612;48.984;8.394;2022-07-25T04:00:40;19.90;99.90
38866;DHT22;24612;48.984;8.394;2022-07-25T04:03:08;19.90;99.90
38866;DHT22;24612;48.984;8.394;2022-07-25T04:05:36;19.90;99.90
38866;DHT22;24612;48.984;8.394;2022-07-25T04:08:04;19.90;99.90
38866;DHT22;24612;48.984;8.394;2022-07-25T04:10:32;19.90;99.90
38866;DHT22;24612;48.984;8.394;2022-07-25T04:13:01;19.90;99.90
38866;DHT22;24612;48.984;8.394;2022-07-25T04:15:31;20.00;99.90
38866;DHT22;24612;48.984;8.394;2022-07-25T04:17:59;20.10;99.90
38866;DHT22;24612;48.984;8.394;2022-07-25T04:20:27;20.10;99.90
38866;DHT22;24612;48.984;8.394;2022-07-25T04:22:55;20.10;99.90
38866;DHT22;24612;48.984;8.394;2022-07-25T04:25:23;20.20;99.90
38866;DHT22;24612;48.984;8.394;2022-07-25T04:27:51;20.20;99.90
38866;DHT22;24612;48.984;8.394;2022-07-25T04:30:19;20.30;99.90
38866;DHT22;24612;48.984;8.394;2022-07-25T04:32:49;20.20;99.90
38866;DHT22;24612;48.984;8.394;2022-07-25T04:35:17;20.20;99.90
38866;DHT22;24612;48.984;8.394;2022-07-25T04:37:45;20.30;99.90
38866;DHT22;24612;48.984;8.394;2022-07-25T04:40:13;20.30;99.90
38866;DHT22;24612;48.984;8.394;2022-07-25T04:42:41;20.40;99.90
38866;DHT22;24612;48.984;8.394;2022-07-25T04:45:10;20.40;99.90
38866;DHT22;24612;48.984;8.394;2022-07-25T04:47:38;20.50;99.90
38866;DHT22;24612;48.984;8.394;2022-07-25T04:50:08;20.50;99.90
38866;DHT22;24612;48.984;8.394;2022-07-25T04:52:36;20.50;99.90
38866;DHT22;24612;48.984;8.394;2022-07-25T04:55:05;20.50;99.90
38866;DHT22;24612;48.984;8.394;2022-07-25T04:57:34;20.50;99.90
38866;DHT22;24612;48.984;8.394;2022-07-25T05:00:03;20.40;99.90
38866;DHT22;24612;48.984;8.394;2022-07-25T05:02:31;20.60;99.90
38866;DHT22;24612;48.984;8.394;2022-07-25T05:05:00;20.70;99.90
38866;DHT22;24612;48.984;8.394;2022-07-25T05:07:29;20.90;99.90
38866;DHT22;24612;48.984;8.394;2022-07-25T05:09:57;21.00;99.90
38866;DHT22;24612;48.984;8.394;2022-07-25T05:12:25;21.20;99.90
38866;DHT22;24612;48.984;8.394;2022-07-25T05:14:53;21.30;99.90
38866;DHT22;24612;48.984;8.394;2022-07-25T05:17:22;21.40;99.90
38866;DHT22;24612;48.984;8.394;2022-07-25T05:19:50;21.60;99.90
38866;DHT22;24612;48.984;8.394;2022-07-25T05:22:18;21.70;99.90
38866;DHT22;24612;48.984;8.394;2022-07-25T05:24:49;21.80;99.90
38866;DHT22;24612;48.984;8.394;2022-07-25T05:27:17;21.90;99.90
38866;DHT22;24612;48.984;8.394;2022-07-25T05:29:45;22.00;99.90
38866;DHT22;24612;48.984;8.394;2022-07-25T05:32:13;22.10;99.90
38866;DHT22;24612;48.984;8.394;2022-07-25T05:34:41;22.30;99.90
38866;DHT22;24612;48.984;8.394;2022-07-25T05:37:09;22.40;99.90
38866;DHT22;24612;48.984;8.394;2022-07-25T05:39:37;22.50;99.90
38866;DHT22;24612;48.984;8.394;2022-07-25T05:42:07;22.60;99.90
38866;DHT22;24612;48.984;8.394;2022-07-25T05:44:35;22.80;99.90
38866;DHT22;24612;48.984;8.394;2022-07-25T05:47:03;22.90;99.90
38866;DHT22;24612;48.984;8.394;2022-07-25T05:49:35;23.00;99.90
38866;DHT22;24612;48.984;8.394;2022-07-25T05:52:03;23.10;99.90
38866;DHT22;24612;48.984;8.394;2022-07-25T05:54:34;23.30;99.90
38866;DHT22;24612;48.984;8.394;2022-07-25T05:57:02;23.40;99.90
38866;DHT22;24612;48.984;8.394;2022-07-25T05:59:32;23.40;99.90
38866;DHT22;24612;48.984;8.394;2022-07-25T06:02:00;23.60;99.90
38866;DHT22;24612;48.984;8.394;2022-07-25T06:04:29;23.70;99.90
38866;DHT22;24612;48.984;8.394;2022-07-25T06:06:57;23.90;99.90
38866;DHT22;24612;48.984;8.394;2022-07-25T06:09:25;24.00;99.90
38866;DHT22;24612;48.984;8.394;2022-07-25T06:11:53;24.20;99.90
38866;DHT22;24612;48.984;8.394;2022-07-25T06:14:21;24.40;99.90
38866;DHT22;24612;48.984;8.394;2022-07-25T06:16:51;24.60;99.90
38866;DHT22;24612;48.984;8.394;2022-07-25T06:19:19;24.80;99.90
38866;DHT22;24612;48.984;8.394;2022-07-25T06:21:49;25.00;99.90
38866;DHT22;24612;48.984;8.394;2022-07-25T06:24:18;25.30;99.90
38866;DHT22;24612;48.984;8.394;2022-07-25T06:26:46;25.40;99.90
38866;DHT22;24612;48.984;8.394;2022-07-25T06:29:14;25.50;99.90
38866;DHT22;24612;48.984;8.394;2022-07-25T06:31:42;25.80;99.90
38866;DHT22;24612;48.984;8.394;2022-07-25T06:34:11;26.00;99.90
38866;DHT22;24612;48.984;8.394;2022-07-25T06:36:39;26.10;99.90
38866;DHT22;24612;48.984;8.394;2022-07-25T06:39:07;26.20;99.90
38866;DHT22;24612;48.984;8.394;2022-07-25T06:41:35;26.30;99.90
38866;DHT22;24612;48.984;8.394;2022-07-25T06:44:03;26.50;99.90
38866;DHT22;24612;48.984;8.394;2022-07-25T06:46:32;26.70;99.90
38866;DHT22;24612;48.984;8.394;2022-07-25T06:49:00;27.40;99.90
38866;DHT22;24612;48.984;8.394;2022-07-25T06:51:30;28.60;99.90
38866;DHT22;24612;48.984;8.394;2022-07-25T06:53:58;30.40;99.90
38866;DHT22;24612;48.984;8.394;2022-07-25T06:56:27;32.40;98.80
38866;DHT22;24612;48.984;8.394;2022-07-25T06:58:57;34.40;95.20
38866;DHT22;24612;48.984;8.394;2022-07-25T07:01:25;36.10;91.10
38866;DHT22;24612;48.984;8.394;2022-07-25T07:03:53;37.50;84.70
38866;DHT22;24612;48.984;8.394;2022-07-25T07:06:21;38.90;77.30
38866;DHT22;24612;48.984;8.394;2022-07-25T07:08:50;39.20;74.90
38866;DHT22;24612;48.984;8.394;2022-07-25T07:11:19;39.80;73.30
38866;DHT22;24612;48.984;8.394;2022-07-25T07:13:47;40.10;68.00
38866;DHT22;24612;48.984;8.394;2022-07-25T07:16:15;40.90;64.90
38866;DHT22;24612;48.984;8.394;2022-07-25T07:18:43;41.40;65.20
38866;DHT22;24612;48.984;8.394;2022-07-25T07:21:14;41.50;60.70
38866;DHT22;24612;48.984;8.394;2022-07-25T07:23:42;41.30;61.60
38866;DHT22;24612;48.984;8.394;2022-07-25T07:26:12;42.00;59.30
38866;DHT22;24612;48.984;8.394;2022-07-25T07:28:40;42.60;59.60
38866;DHT22;24612;48.984;8.394;2022-07-25T07:31:08;42.40;59.70
38866;DHT22;24612;48.984;8.394;2022-07-25T07:33:43;42.90;58.60
38866;DHT22;24612;48.984;8.394;2022-07-25T07:36:12;43.40;57.30
38866;DHT22;24612;48.984;8.394;2022-07-25T07:38:40;43.90;55.50
38866;DHT22;24612;48.984;8.394;2022-07-25T07:41:11;43.50;56.20
38866;DHT22;24612;48.984;8.394;2022-07-25T07:43:40;44.00;55.80
38866;DHT22;24612;48.984;8.394;2022-07-25T07:46:08;44.10;54.00
38866;DHT22;24612;48.984;8.394;2022-07-25T07:48:37;44.10;56.60
38866;DHT22;24612;48.984;8.394;2022-07-25T07:51:05;44.10;55.10
38866;DHT22;24612;48.984;8.394;2022-07-25T07:53:33;44.80;54.00
38866;DHT22;24612;48.984;8.394;2022-07-25T07:56:20;44.60;53.40
38866;DHT22;24612;48.984;8.394;2022-07-25T07:58:48;44.10;55.30
38866;DHT22;24612;48.984;8.394;2022-07-25T08:01:17;44.70;54.90
38866;DHT22;24612;48.984;8.394;2022-07-25T08:03:45;44.90;55.00
38866;DHT22;24612;48.984;8.394;2022-07-25T08:06:13;45.00;54.20
38866;DHT22;24612;48.984;8.394;2022-07-25T08:08:42;45.30;53.60
38866;DHT22;24612;48.984;8.394;2022-07-25T08:11:10;45.00;54.90
38866;DHT22;24612;48.984;8.394;2022-07-25T08:13:39;44.60;55.40
38866;DHT22;24612;48.984;8.394;2022-07-25T08:16:07;45.40;53.20
38866;DHT22;24612;48.984;8.394;2022-07-25T08:18:37;45.50;53.10
38866;DHT22;24612;48.984;8.394;2022-07-25T08:21:06;45.40;53.00
38866;DHT22;24612;48.984;8.394;2022-07-25T08:23:34;45.40;52.20
38866;DHT22;24612;48.984;8.394;2022-07-25T08:26:04;45.80;51.60
38866;DHT22;24612;48.984;8.394;2022-07-25T08:28:33;45.90;50.60
38866;DHT22;24612;48.984;8.394;2022-07-25T08:31:02;45.60;52.20
38866;DHT22;24612;48.984;8.394;2022-07-25T08:33:30;45.20;50.20
38866;DHT22;24612;48.984;8.394;2022-07-25T08:35:58;45.10;52.90
38866;DHT22;24612;48.984;8.394;2022-07-25T08:38:27;44.70;52.10
38866;DHT22;24612;48.984;8.394;2022-07-25T08:40:56;45.00;51.80
38866;DHT22;24612;48.984;8.394;2022-07-25T08:43:24;45.20;52.10
38866;DHT22;24612;48.984;8.394;2022-07-25T08:45:53;45.80;53.30
38866;DHT22;24612;48.984;8.394;2022-07-25T08:48:24;46.40;49.10
38866;DHT22;24612;48.984;8.394;2022-07-25T08:50:54;46.30;50.30
38866;DHT22;24612;48.984;8.394;2022-07-25T08:53:23;45.90;50.50
38866;DHT22;24612;48.984;8.394;2022-07-25T08:56:00;45.00;52.20
38866;DHT22;24612;48.984;8.394;2022-07-25T08:58:30;45.40;53.30
38866;DHT22;24612;48.984;8.394;2022-07-25T09:00:58;46.30;51.80
38866;DHT22;24612;48.984;8.394;2022-07-25T09:03:27;46.80;49.70
38866;DHT22;24612;48.984;8.394;2022-07-25T09:05:55;46.10;51.00
38866;DHT22;24612;48.984;8.394;2022-07-25T09:08:23;46.30;51.90
38866;DHT22;24612;48.984;8.394;2022-07-25T09:10:52;46.70;49.70
38866;DHT22;24612;48.984;8.394;2022-07-25T09:13:21;46.90;47.90
38866;DHT22;24612;48.984;8.394;2022-07-25T09:15:50;47.30;49.70
38866;DHT22;24612;48.984;8.394;2022-07-25T09:18:22;46.90;49.20
38866;DHT22;24612;48.984;8.394;2022-07-25T09:20:54;47.10;49.00
38866;DHT22;24612;48.984;8.394;2022-07-25T09:23:29;47.00;50.30
38866;DHT22;24612;48.984;8.394;2022-07-25T09:26:01;47.40;48.50
38866;DHT22;24612;48.984;8.394;2022-07-25T09:28:30;47.70;48.20
38866;DHT22;24612;48.984;8.394;2022-07-25T09:31:00;48.30;46.80
38866;DHT22;24612;48.984;8.394;2022-07-25T09:33:43;48.20;47.50
38866;DHT22;24612;48.984;8.394;2022-07-25T09:36:15;47.80;47.70
38866;DHT22;24612;48.984;8.394;2022-07-25T09:38:51;47.90;47.60
38866;DHT22;24612;48.984;8.394;2022-07-25T09:41:19;48.10;46.90
38866;DHT22;24612;48.984;8.394;2022-07-25T09:43:47;48.50;45.70
38866;DHT22;24612;48.984;8.394;2022-07-25T09:46:15;48.70;45.80
38866;DHT22;24612;48.984;8.394;2022-07-25T09:48:43;48.00;45.80
38866;DHT22;24612;48.984;8.394;2022-07-25T09:51:12;48.20;45.80
38866;DHT22;24612;48.984;8.394;2022-07-25T09:53:41;47.70;46.50
38866;DHT22;24612;48.984;8.394;2022-07-25T09:56:09;47.90;46.50
38866;DHT22;24612;48.984;8.394;2022-07-25T09:58:37;47.90;46.60
38866;DHT22;24612;48.984;8.394;2022-07-25T10:01:06;47.90;45.80
38866;DHT22;24612;48.984;8.394;2022-07-25T10:03:46;47.60;45.10
38866;DHT22;24612;48.984;8.394;2022-07-25T10:06:19;47.20;45.00
38866;DHT22;24612;48.984;8.394;2022-07-25T10:08:50;46.90;47.70
38866;DHT22;24612;48.984;8.394;2022-07-25T10:11:19;47.20;46.60
38866;DHT22;24612;48.984;8.394;2022-07-25T10:13:48;47.00;45.60
38866;DHT22;24612;48.984;8.394;2022-07-25T10:16:17;46.70;46.70
38866;DHT22;24612;48.984;8.394;2022-07-25T10:18:51;46.30;47.30
38866;DHT22;24612;48.984;8.394;2022-07-25T10:21:20;45.00;47.40
38866;DHT22;24612;48.984;8.394;2022-07-25T10:24:00;44.30;47.50
38866;DHT22;24612;48.984;8.394;2022-07-25T10:26:29;43.40;49.40
38866;DHT22;24612;48.984;8.394;2022-07-25T10:28:58;41.60;52.30
38866;DHT22;24612;48.984;8.394;2022-07-25T10:31:34;40.30;53.50
38866;DHT22;24612;48.984;8.394;2022-07-25T10:34:05;39.70;56.00
38866;DHT22;24612;48.984;8.394;2022-07-25T10:36:41;39.20;55.30
38866;DHT22;24612;48.984;8.394;2022-07-25T10:39:13;38.60;54.70
38866;DHT22;24612;48.984;8.394;2022-07-25T10:41:43;38.80;57.60
38866;DHT22;24612;48.984;8.394;2022-07-25T10:44:12;38.90;59.70
38866;DHT22;24612;48.984;8.394;2022-07-25T10:46:41;38.90;57.30
38866;DHT22;24612;48.984;8.394;2022-07-25T10:49:16;38.60;60.50
38866;DHT22;24612;48.984;8.394;2022-07-25T10:51:53;38.90;58.20
38866;DHT22;24612;48.984;8.394;2022-07-25T10:54:23;39.30;57.60
38866;DHT22;24612;48.984;8.394;2022-07-25T10:56:53;39.20;56.10
38866;DHT22;24612;48.984;8.394;2022-07-25T10:59:31;39.20;54.70
38866;DHT22;24612;48.984;8.394;2022-07-25T11:02:00;39.00;55.20
38866;DHT22;24612;48.984;8.394;2022-07-25T11:04:28;38.40;56.00
38866;DHT22;24612;48.984;8.394;2022-07-25T11:06:57;37.90;57.50
38866;DHT22;24612;48.984;8.394;2022-07-25T11:09:35;37.80;57.30
38866;DHT22;24612;48.984;8.394;2022-07-25T11:12:04;37.70;58.80
38866;DHT22;24612;48.984;8.394;2022-07-25T11:14:34;37.60;58.90
38866;DHT22;24612;48.984;8.394;2022-07-25T11:17:12;37.70;58.50
38866;DHT22;24612;48.984;8.394;2022-07-25T11:19:42;37.90;60.20
38866;DHT22;24612;48.984;8.394;2022-07-25T11:22:10;38.10;57.20
38866;DHT22;24612;48.984;8.394;2022-07-25T11:24:41;38.20;59.10
38866;DHT22;24612;48.984;8.394;2022-07-25T11:27:11;38.00;59.60
38866;DHT22;24612;48.984;8.394;2022-07-25T11:29:40;38.30;59.90
38866;DHT22;24612;48.984;8.394;2022-07-25T11:32:09;38.70;59.50
38866;DHT22;24612;48.984;8.394;2022-07-25T11:34:40;39.00;56.50
38866;DHT22;24612;48.984;8.394;2022-07-25T11:37:10;39.10;57.10
38866;DHT22;24612;48.984;8.394;2022-07-25T11:39:42;38.90;58.20
38866;DHT22;24612;48.984;8.394;2022-07-25T11:42:11;38.30;58.60
38866;DHT22;24612;48.984;8.394;2022-07-25T11:44:43;37.80;59.90
38866;DHT22;24612;48.984;8.394;2022-07-25T11:47:23;37.40;60.50
38866;DHT22;24612;48.984;8.394;2022-07-25T11:49:53;37.40;58.80
38866;DHT22;24612;48.984;8.394;2022-07-25T11:52:25;37.60;58.60
38866;DHT22;24612;48.984;8.394;2022-07-25T11:54:58;38.20;59.50
38866;DHT22;24612;48.984;8.394;2022-07-25T11:57:27;38.50;58.80
38866;DHT22;24612;48.984;8.394;2022-07-25T11:59:56;38.80;56.50
38866;DHT22;24612;48.984;8.394;2022-07-25T12:02:28;39.00;57.50
38866;DHT22;24612;48.984;8.394;2022-07-25T12:05:00;39.00;56.30
38866;DHT22;24612;48.984;8.394;2022-07-25T12:07:50;38.80;57.60
38866;DHT22;24612;48.984;8.394;2022-07-25T12:10:22;38.60;57.50
38866;DHT22;24612;48.984;8.394;2022-07-25T12:12:52;38.20;56.10
38866;DHT22;24612;48.984;8.394;2022-07-25T12:15:23;37.80;57.60
38866;DHT22;24612;48.984;8.394;2022-07-25T12:17:53;37.40;58.50
38866;DHT22;24612;48.984;8.394;2022-07-25T12:20:23;37.20;58.50
38866;DHT22;24612;48.984;8.394;2022-07-25T12:22:54;37.00;60.80
38866;DHT22;24612;48.984;8.394;2022-07-25T12:25:24;36.50;62.90
38866;DHT22;24612;48.984;8.394;2022-07-25T12:27:57;36.50;62.50
38866;DHT22;24612;48.984;8.394;2022-07-25T12:30:26;36.50;60.60
38866;DHT22;24612;48.984;8.394;2022-07-25T12:32:56;36.40;59.90
38866;DHT22;24612;48.984;8.394;2022-07-25T12:35:25;36.40;62.80
38866;DHT22;24612;48.984;8.394;2022-07-25T12:37:54;36.50;63.50
38866;DHT22;24612;48.984;8.394;2022-07-25T12:40:23;36.90;63.80
38866;DHT22;24612;48.984;8.394;2022-07-25T12:42:51;37.10;62.70
38866;DHT22;24612;48.984;8.394;2022-07-25T12:45:19;37.00;62.00
38866;DHT22;24612;48.984;8.394;2022-07-25T12:47:49;37.20;61.60
38866;DHT22;24612;48.984;8.394;2022-07-25T12:50:17;37.10;62.40
38866;DHT22;24612;48.984;8.394;2022-07-25T12:52:46;36.80;60.40
38866;DHT22;24612;48.984;8.394;2022-07-25T12:55:16;36.50;59.70
38866;DHT22;24612;48.984;8.394;2022-07-25T12:57:46;36.50;59.50
38866;DHT22;24612;48.984;8.394;2022-07-25T13:00:15;36.40;63.80
38866;DHT22;24612;48.984;8.394;2022-07-25T13:02:45;36.50;60.80
38866;DHT22;24612;48.984;8.394;2022-07-25T13:05:13;36.40;63.40
38866;DHT22;24612;48.984;8.394;2022-07-25T13:07:41;36.20;62.70
38866;DHT22;24612;48.984;8.394;2022-07-25T13:10:10;36.10;63.90
38866;DHT22;24612;48.984;8.394;2022-07-25T13:12:39;36.10;62.00
38866;DHT22;24612;48.984;8.394;2022-07-25T13:15:09;36.00;64.30
38866;DHT22;24612;48.984;8.394;2022-07-25T13:17:37;35.70;62.60
38866;DHT22;24612;48.984;8.394;2022-07-25T13:20:07;35.60;63.30
38866;DHT22;24612;48.984;8.394;2022-07-25T13:22:35;35.50;65.30
38866;DHT22;24612;48.984;8.394;2022-07-25T13:25:04;35.40;65.10
38866;DHT22;24612;48.984;8.394;2022-07-25T13:27:32;35.20;66.40
38866;DHT22;24612;48.984;8.394;2022-07-25T13:30:00;35.20;65.00
38866;DHT22;24612;48.984;8.394;2022-07-25T13:32:29;35.30;64.00
38866;DHT22;24612;48.984;8.394;2022-07-25T13:34:57;35.40;64.60
38866;DHT22;24612;48.984;8.394;2022-07-25T13:37:25;35.60;65.00
38866;DHT22;24612;48.984;8.394;2022-07-25T13:39:54;35.90;65.60
38866;DHT22;24612;48.984;8.394;2022-07-25T13:42:22;36.30;63.70
38866;DHT22;24612;48.984;8.394;2022-07-25T13:44:50;36.10;61.70
38866;DHT22;24612;48.984;8.394;2022-07-25T13:47:18;36.00;65.00
38866;DHT22;24612;48.984;8.394;2022-07-25T13:49:47;35.80;61.00
38866;DHT22;24612;48.984;8.394;2022-07-25T13:52:15;35.40;63.10
38866;DHT22;24612;48.984;8.394;2022-07-25T13:54:44;35.40;63.40
38866;DHT22;24612;48.984;8.394;2022-07-25T13:57:12;35.20;65.90
38866;DHT22;24612;48.984;8.394;2022-07-25T13:59:40;35.30;66.60
38866;DHT22;24612;48.984;8.394;2022-07-25T14:02:08;35.30;65.10
38866;DHT22;24612;48.984;8.394;2022-07-25T14:04:36;35.10;63.10
38866;DHT22;24612;48.984;8.394;2022-07-25T14:07:05;34.70;64.50
38866;DHT22;24612;48.984;8.394;2022-07-25T14:09:33;34.30;67.40
38866;DHT22;24612;48.984;8.394;2022-07-25T14:12:01;33.90;70.30
38866;DHT22;24612;48.984;8.394;2022-07-25T14:14:30;33.40;75.10
38866;DHT22;24612;48.984;8.394;2022-07-25T14:16:58;32.90;74.70
38866;DHT22;24612;48.984;8.394;2022-07-25T14:19:26;32.50;75.50
38866;DHT22;24612;48.984;8.394;2022-07-25T14:21:54;32.10;85.70
38866;DHT22;24612;48.984;8.394;2022-07-25T14:24:23;31.70;90.50
38866;DHT22;24612;48.984;8.394;2022-07-25T14:26:51;31.30;90.30
38866;DHT22;24612;48.984;8.394;2022-07-25T14:29:20;30.90;93.70
38866;DHT22;24612;48.984;8.394;2022-07-25T14:31:51;30.60;93.60
38866;DHT22;24612;48.984;8.394;2022-07-25T14:34:19;30.40;95.10
38866;DHT22;24612;48.984;8.394;2022-07-25T14:36:47;30.40;95.90
38866;DHT22;24612;48.984;8.394;2022-07-25T14:39:16;30.30;99.90
38866;DHT22;24612;48.984;8.394;2022-07-25T14:41:45;30.30;99.90
38866;DHT22;24612;48.984;8.394;2022-07-25T14:44:13;30.30;99.90
38866;DHT22;24612;48.984;8.394;2022-07-25T14:46:41;30.40;98.70
38866;DHT22;24612;48.984;8.394;2022-07-25T14:49:11;30.60;99.90
38866;DHT22;24612;48.984;8.394;2022-07-25T14:51:39;30.80;98.20
38866;DHT22;24612;48.984;8.394;2022-07-25T14:54:08;30.80;99.70
38866;DHT22;24612;48.984;8.394;2022-07-25T14:56:36;30.90;95.50
38866;DHT22;24612;48.984;8.394;2022-07-25T14:59:06;31.00;96.90
38866;DHT22;24612;48.984;8.394;2022-07-25T15:01:34;31.00;99.90
38866;DHT22;24612;48.984;8.394;2022-07-25T15:04:03;31.10;99.20
38866;DHT22;24612;48.984;8.394;2022-07-25T15:06:31;31.20;99.60
38866;DHT22;24612;48.984;8.394;2022-07-25T15:09:00;31.20;98.90
38866;DHT22;24612;48.984;8.394;2022-07-25T15:11:28;31.20;98.30
38866;DHT22;24612;48.984;8.394;2022-07-25T15:13:56;31.20;97.00
38866;DHT22;24612;48.984;8.394;2022-07-25T15:16:25;31.30;95.80
38866;DHT22;24612;48.984;8.394;2022-07-25T15:18:53;31.30;95.10
38866;DHT22;24612;48.984;8.394;2022-07-25T15:21:40;31.50;95.50
38866;DHT22;24612;48.984;8.394;2022-07-25T15:24:08;31.50;94.60
38866;DHT22;24612;48.984;8.394;2022-07-25T15:26:36;31.50;94.00
38866;DHT22;24612;48.984;8.394;2022-07-25T15:29:05;31.50;93.40
38866;DHT22;24612;48.984;8.394;2022-07-25T15:31:36;31.50;93.00
38866;DHT22;24612;48.984;8.394;2022-07-25T15:34:04;31.50;94.00
38866;DHT22;24612;48.984;8.394;2022-07-25T15:36:32;31.60;93.20
38866;DHT22;24612;48.984;8.394;2022-07-25T15:39:00;31.80;93.80
38866;DHT22;24612;48.984;8.394;2022-07-25T15:41:29;31.90;93.40